sensor_id;sensor_type;location;lat;lon;timestamp;P1;durP1;ratioP1;P2;durP2;ratioP2
71290;SDS011;59073;51.994;4.448;2022-11-15T00:00:15;18.99;;;18.46;;
71290;SDS011;59073;51.994;4.448;2022-11-15T00:02:40;20.94;;;19.74;;
71290;SDS011;59073;51.994;4.448;2022-11-15T00:05:06;19.59;;;18.86;;
71290;SDS011;59073;51.994;4.448;2022-11-15T00:07:31;19.03;;;18.20;;
71290;SDS011;59073;51.994;4.448;2022-11-15T00:09:57;18.77;;;18.22;;
71290;SDS011;59073;51.994;4.448;2022-11-15T00:12:22;19.90;;;19.07;;
71290;SDS011;59073;51.994;4.448;2022-11-15T00:14:47;20.01;;;19.36;;
71290;SDS011;59073;51.994;4.448;2022-11-15T00:17:13;20.35;;;19.69;;
71290;SDS011;59073;51.994;4.448;2022-11-15T00:19:38;20.49;;;19.56;;
71290;SDS011;59073;51.994;4.448;2022-11-15T00:22:03;20.26;;;19.49;;
71290;SDS011;59073;51.994;4.448;2022-11-15T00:24:29;20.10;;;19.25;;
71290;SDS011;59073;51.994;4.448;2022-11-15T00:26:54;19.88;;;18.90;;
71290;SDS011;59073;51.994;4.448;2022-11-15T00:29:20;19.79;;;18.50;;
71290;SDS011;59073;51.994;4.448;2022-11-15T00:31:45;20.01;;;18.91;;
71290;SDS011;59073;51.994;4.448;2022-11-15T00:34:10;21.91;;;20.20;;
71290;SDS011;59073;51.994;4.448;2022-11-15T00:36:36;21.35;;;19.93;;
71290;SDS011;59073;51.994;4.448;2022-11-15T00:39:03;20.61;;;19.62;;
71290;SDS011;59073;51.994;4.448;2022-11-15T00:41:30;21.11;;;19.95;;
71290;SDS011;59073;51.994;4.448;2022-11-15T00:43:56;22.26;;;20.68;;
71290;SDS011;59073;51.994;4.448;2022-11-15T00:46:22;20.48;;;19.36;;
71290;SDS011;59073;51.994;4.448;2022-11-15T00:48:47;21.99;;;20.59;;
71290;SDS011;59073;51.994;4.448;2022-11-15T00:51:13;21.32;;;20.35;;
71290;SDS011;59073;51.994;4.448;2022-11-15T00:53:38;21.35;;;20.16;;
71290;SDS011;59073;51.994;4.448;2022-11-15T00:56:04;19.85;;;18.73;;
71290;SDS011;59073;51.994;4.448;2022-11-15T00:58:30;20.15;;;19.40;;
71290;SDS011;59073;51.994;4.448;2022-11-15T01:00:55;20.26;;;19.44;;
71290;SDS011;59073;51.994;4.448;2022-11-15T01:03:21;20.17;;;19.22;;
71290;SDS011;59073;51.994;4.448;2022-11-15T01:05:46;20.87;;;19.78;;
71290;SDS011;59073;51.994;4.448;2022-11-15T01:08:13;20.91;;;19.93;;
71290;SDS011;59073;51.994;4.448;2022-11-15T01:10:42;21.17;;;19.97;;
71290;SDS011;59073;51.994;4.448;2022-11-15T01:13:07;21.05;;;19.84;;
71290;SDS011;59073;51.994;4.448;2022-11-15T01:15:33;21.79;;;20.47;;
71290;SDS011;59073;51.994;4.448;2022-11-15T01:17:58;21.56;;;20.34;;
71290;SDS011;59073;51.994;4.448;2022-11-15T01:20:24;21.95;;;20.55;;
71290;SDS011;59073;51.994;4.448;2022-11-15T01:22:49;22.44;;;21.19;;
71290;SDS011;59073;51.994;4.448;2022-11-15T01:25:14;22.42;;;21.04;;
71290;SDS011;59073;51.994;4.448;2022-11-15T01:27:40;22.76;;;21.28;;
71290;SDS011;59073;51.994;4.448;2022-11-15T01:30:06;23.20;;;21.34;;
71290;SDS011;59073;51.994;4.448;2022-11-15T01:32:31;22.25;;;20.73;;
71290;SDS011;59073;51.994;4.448;2022-11-15T01:34:57;22.03;;;21.03;;
71290;SDS011;59073;51.994;4.448;2022-11-15T01:37:22;23.00;;;21.92;;
71290;SDS011;59073;51.994;4.448;2022-11-15T01:39:48;23.28;;;21.88;;
71290;SDS011;59073;51.994;4.448;2022-11-15T01:42:13;23.27;;;22.19;;
71290;SDS011;59073;51.994;4.448;2022-11-15T01:44:40;22.47;;;21.23;;
71290;SDS011;59073;51.994;4.448;2022-11-15T01:47:12;22.73;;;21.72;;
71290;SDS011;59073;51.994;4.448;2022-11-15T01:49:45;22.56;;;21.56;;
71290;SDS011;59073;51.994;4.448;2022-11-15T01:52:16;21.61;;;20.84;;
71290;SDS011;59073;51.994;4.448;2022-11-15T01:54:45;21.83;;;21.03;;
71290;SDS011;59073;51.994;4.448;2022-11-15T01:57:14;22.80;;;21.81;;
71290;SDS011;59073;51.994;4.448;2022-11-15T01:59:40;21.92;;;20.94;;
71290;SDS011;59073;51.994;4.448;2022-11-15T02:02:09;22.36;;;21.47;;
71290;SDS011;59073;51.994;4.448;2022-11-15T02:04:37;21.86;;;21.15;;
71290;SDS011;59073;51.994;4.448;2022-11-15T02:07:10;22.06;;;21.21;;
71290;SDS011;59073;51.994;4.448;2022-11-15T02:09:40;22.59;;;21.76;;
71290;SDS011;59073;51.994;4.448;2022-11-15T02:12:05;21.78;;;21.17;;
71290;SDS011;59073;51.994;4.448;2022-11-15T02:14:34;21.08;;;20.48;;
71290;SDS011;59073;51.994;4.448;2022-11-15T02:17:18;21.21;;;20.62;;
71290;SDS011;59073;51.994;4.448;2022-11-15T02:20:08;21.33;;;20.45;;
71290;SDS011;59073;51.994;4.448;2022-11-15T02:23:04;20.32;;;19.88;;
71290;SDS011;59073;51.994;4.448;2022-11-15T02:39:37;19.49;;;19.03;;
71290;SDS011;59073;51.994;4.448;2022-11-15T02:42:11;20.11;;;19.79;;
71290;SDS011;59073;51.994;4.448;2022-11-15T02:45:11;20.29;;;19.80;;
71290;SDS011;59073;51.994;4.448;2022-11-15T02:47:46;19.90;;;19.42;;
71290;SDS011;59073;51.994;4.448;2022-11-15T02:50:20;19.04;;;18.74;;
71290;SDS011;59073;51.994;4.448;2022-11-15T02:52:50;18.93;;;18.68;;
71290;SDS011;59073;51.994;4.448;2022-11-15T02:55:26;19.17;;;18.97;;
71290;SDS011;59073;51.994;4.448;2022-11-15T03:00:39;18.05;;;17.89;;
71290;SDS011;59073;51.994;4.448;2022-11-15T03:08:35;17.18;;;17.05;;
71290;SDS011;59073;51.994;4.448;2022-11-15T03:11:17;16.90;;;16.63;;
71290;SDS011;59073;51.994;4.448;2022-11-15T03:13:59;16.52;;;16.32;;
71290;SDS011;59073;51.994;4.448;2022-11-15T03:19:34;15.86;;;15.82;;
71290;SDS011;59073;51.994;4.448;2022-11-15T03:22:07;14.81;;;14.79;;
71290;SDS011;59073;51.994;4.448;2022-11-15T03:24:39;14.74;;;14.67;;
71290;SDS011;59073;51.994;4.448;2022-11-15T03:27:08;14.12;;;14.02;;
71290;SDS011;59073;51.994;4.448;2022-11-15T03:29:41;13.87;;;13.86;;
71290;SDS011;59073;51.994;4.448;2022-11-15T03:32:15;13.86;;;13.79;;
71290;SDS011;59073;51.994;4.448;2022-11-15T03:34:47;13.25;;;13.23;;
71290;SDS011;59073;51.994;4.448;2022-11-15T03:37:40;13.90;;;13.73;;
71290;SDS011;59073;51.994;4.448;2022-11-15T03:40:15;13.22;;;13.11;;
71290;SDS011;59073;51.994;4.448;2022-11-15T03:42:46;12.04;;;12.00;;
71290;SDS011;59073;51.994;4.448;2022-11-15T03:45:31;12.05;;;12.05;;
71290;SDS011;59073;51.994;4.448;2022-11-15T03:48:10;10.99;;;10.97;;
71290;SDS011;59073;51.994;4.448;2022-11-15T03:50:41;10.11;;;10.10;;
71290;SDS011;59073;51.994;4.448;2022-11-15T03:53:08;10.06;;;10.03;;
71290;SDS011;59073;51.994;4.448;2022-11-15T03:55:35;9.70;;;9.69;;
71290;SDS011;59073;51.994;4.448;2022-11-15T03:58:00;9.17;;;9.17;;
71290;SDS011;59073;51.994;4.448;2022-11-15T04:00:27;8.69;;;8.69;;
71290;SDS011;59073;51.994;4.448;2022-11-15T04:02:53;8.90;;;8.90;;
71290;SDS011;59073;51.994;4.448;2022-11-15T04:05:19;8.11;;;8.11;;
71290;SDS011;59073;51.994;4.448;2022-11-15T04:07:44;8.18;;;8.18;;
71290;SDS011;59073;51.994;4.448;2022-11-15T04:10:10;7.97;;;7.95;;
71290;SDS011;59073;51.994;4.448;2022-11-15T04:12:37;7.71;;;7.70;;
71290;SDS011;59073;51.994;4.448;2022-11-15T04:15:15;7.41;;;7.39;;
71290;SDS011;59073;51.994;4.448;2022-11-15T04:17:44;7.73;;;7.73;;
71290;SDS011;59073;51.994;4.448;2022-11-15T04:20:21;7.30;;;7.30;;
71290;SDS011;59073;51.994;4.448;2022-11-15T04:23:10;7.07;;;7.06;;
71290;SDS011;59073;51.994;4.448;2022-11-15T04:26:01;6.87;;;6.86;;
71290;SDS011;59073;51.994;4.448;2022-11-15T04:28:29;7.14;;;7.12;;
71290;SDS011;59073;51.994;4.448;2022-11-15T04:30:55;6.49;;;6.47;;
71290;SDS011;59073;51.994;4.448;2022-11-15T04:33:21;6.94;;;6.86;;
71290;SDS011;59073;51.994;4.448;2022-11-15T04:35:47;6.76;;;6.76;;
71290;SDS011;59073;51.994;4.448;2022-11-15T04:38:32;6.41;;;6.41;;
71290;SDS011;59073;51.994;4.448;2022-11-15T04:40:58;6.42;;;6.42;;
71290;SDS011;59073;51.994;4.448;2022-11-15T04:43:23;6.25;;;6.25;;
71290;SDS011;59073;51.994;4.448;2022-11-15T04:45:49;6.69;;;6.67;;
71290;SDS011;59073;51.994;4.448;2022-11-15T04:48:14;6.56;;;6.56;;
71290;SDS011;59073;51.994;4.448;2022-11-15T04:50:39;6.62;;;6.62;;
71290;SDS011;59073;51.994;4.448;2022-11-15T04:53:05;6.54;;;6.54;;
71290;SDS011;59073;51.994;4.448;2022-11-15T04:55:31;6.74;;;6.74;;
71290;SDS011;59073;51.994;4.448;2022-11-15T04:58:00;6.88;;;6.81;;
71290;SDS011;59073;51.994;4.448;2022-11-15T05:00:27;7.01;;;6.95;;
71290;SDS011;59073;51.994;4.448;2022-11-15T05:02:54;6.49;;;6.43;;
71290;SDS011;59073;51.994;4.448;2022-11-15T05:05:39;7.02;;;6.92;;
71290;SDS011;59073;51.994;4.448;2022-11-15T05:08:04;6.80;;;6.79;;
71290;SDS011;59073;51.994;4.448;2022-11-15T05:10:30;6.58;;;6.58;;
71290;SDS011;59073;51.994;4.448;2022-11-15T05:12:55;6.17;;;6.17;;
71290;SDS011;59073;51.994;4.448;2022-11-15T05:15:21;6.87;;;6.87;;
71290;SDS011;59073;51.994;4.448;2022-11-15T05:17:46;5.86;;;5.86;;
71290;SDS011;59073;51.994;4.448;2022-11-15T05:20:12;5.90;;;5.90;;
71290;SDS011;59073;51.994;4.448;2022-11-15T05:22:37;5.93;;;5.93;;
71290;SDS011;59073;51.994;4.448;2022-11-15T05:25:04;5.68;;;5.67;;
71290;SDS011;59073;51.994;4.448;2022-11-15T05:27:30;5.65;;;5.65;;
71290;SDS011;59073;51.994;4.448;2022-11-15T05:29:56;5.66;;;5.66;;
71290;SDS011;59073;51.994;4.448;2022-11-15T05:32:21;5.71;;;5.71;;
71290;SDS011;59073;51.994;4.448;2022-11-15T05:34:47;5.33;;;5.33;;
71290;SDS011;59073;51.994;4.448;2022-11-15T05:37:13;6.10;;;6.10;;
71290;SDS011;59073;51.994;4.448;2022-11-15T05:39:39;5.71;;;5.71;;
71290;SDS011;59073;51.994;4.448;2022-11-15T05:42:11;5.77;;;5.77;;
71290;SDS011;59073;51.994;4.448;2022-11-15T05:44:39;5.76;;;5.76;;
71290;SDS011;59073;51.994;4.448;2022-11-15T05:47:10;5.53;;;5.53;;
71290;SDS011;59073;51.994;4.448;2022-11-15T05:49:39;5.26;;;5.26;;
71290;SDS011;59073;51.994;4.448;2022-11-15T05:52:09;4.91;;;4.91;;
71290;SDS011;59073;51.994;4.448;2022-11-15T05:54:39;5.04;;;5.04;;
71290;SDS011;59073;51.994;4.448;2022-11-15T05:57:06;5.16;;;5.16;;
71290;SDS011;59073;51.994;4.448;2022-11-15T05:59:32;4.93;;;4.93;;
71290;SDS011;59073;51.994;4.448;2022-11-15T06:01:59;4.16;;;4.16;;
71290;SDS011;59073;51.994;4.448;2022-11-15T06:04:25;4.18;;;4.18;;
71290;SDS011;59073;51.994;4.448;2022-11-15T06:06:50;4.27;;;4.27;;
71290;SDS011;59073;51.994;4.448;2022-11-15T06:09:16;4.03;;;4.03;;
71290;SDS011;59073;51.994;4.448;2022-11-15T06:11:41;3.77;;;3.77;;
71290;SDS011;59073;51.994;4.448;2022-11-15T06:14:06;3.75;;;3.75;;
71290;SDS011;59073;51.994;4.448;2022-11-15T06:16:32;3.55;;;3.55;;
71290;SDS011;59073;51.994;4.448;2022-11-15T06:18:57;3.53;;;3.52;;
71290;SDS011;59073;51.994;4.448;2022-11-15T06:21:23;3.55;;;3.55;;
71290;SDS011;59073;51.994;4.448;2022-11-15T06:23:48;3.22;;;3.21;;
71290;SDS011;59073;51.994;4.448;2022-11-15T06:26:13;2.87;;;2.86;;
71290;SDS011;59073;51.994;4.448;2022-11-15T06:28:39;3.26;;;3.25;;
71290;SDS011;59073;51.994;4.448;2022-11-15T06:31:05;3.09;;;3.08;;
71290;SDS011;59073;51.994;4.448;2022-11-15T06:33:32;2.82;;;2.82;;
71290;SDS011;59073;51.994;4.448;2022-11-15T06:36:08;3.07;;;3.07;;
71290;SDS011;59073;51.994;4.448;2022-11-15T06:38:35;3.22;;;3.22;;
71290;SDS011;59073;51.994;4.448;2022-11-15T06:41:08;3.54;;;3.54;;
71290;SDS011;59073;51.994;4.448;2022-11-15T06:43:36;3.16;;;3.16;;
71290;SDS011;59073;51.994;4.448;2022-11-15T06:46:02;3.31;;;3.30;;
71290;SDS011;59073;51.994;4.448;2022-11-15T06:48:29;3.29;;;3.29;;
71290;SDS011;59073;51.994;4.448;2022-11-15T06:50:58;3.56;;;3.56;;
71290;SDS011;59073;51.994;4.448;2022-11-15T06:53:25;3.61;;;3.61;;
71290;SDS011;59073;51.994;4.448;2022-11-15T06:55:52;3.41;;;3.41;;
71290;SDS011;59073;51.994;4.448;2022-11-15T06:58:18;3.60;;;3.60;;
71290;SDS011;59073;51.994;4.448;2022-11-15T07:00:45;3.81;;;3.81;;
71290;SDS011;59073;51.994;4.448;2022-11-15T07:03:10;3.45;;;3.44;;
71290;SDS011;59073;51.994;4.448;2022-11-15T07:05:36;3.75;;;3.75;;
71290;SDS011;59073;51.994;4.448;2022-11-15T07:08:01;3.80;;;3.80;;
71290;SDS011;59073;51.994;4.448;2022-11-15T07:10:28;3.54;;;3.54;;
71290;SDS011;59073;51.994;4.448;2022-11-15T07:12:54;3.89;;;3.89;;
71290;SDS011;59073;51.994;4.448;2022-11-15T07:15:21;3.41;;;3.40;;
71290;SDS011;59073;51.994;4.448;2022-11-15T07:17:49;3.73;;;3.70;;
71290;SDS011;59073;51.994;4.448;2022-11-15T07:20:15;3.12;;;3.11;;
71290;SDS011;59073;51.994;4.448;2022-11-15T07:22:41;3.46;;;3.46;;
71290;SDS011;59073;51.994;4.448;2022-11-15T07:25:07;3.35;;;3.35;;
71290;SDS011;59073;51.994;4.448;2022-11-15T07:27:34;3.40;;;3.40;;
71290;SDS011;59073;51.994;4.448;2022-11-15T07:29:59;3.71;;;3.70;;
71290;SDS011;59073;51.994;4.448;2022-11-15T07:32:26;3.36;;;3.34;;
71290;SDS011;59073;51.994;4.448;2022-11-15T07:34:51;3.24;;;3.24;;
71290;SDS011;59073;51.994;4.448;2022-11-15T07:37:17;3.23;;;3.23;;
71290;SDS011;59073;51.994;4.448;2022-11-15T07:39:43;2.83;;;2.83;;
71290;SDS011;59073;51.994;4.448;2022-11-15T07:42:09;3.09;;;3.09;;
71290;SDS011;59073;51.994;4.448;2022-11-15T07:44:53;3.00;;;3.00;;
71290;SDS011;59073;51.994;4.448;2022-11-15T07:47:18;3.32;;;3.31;;
71290;SDS011;59073;51.994;4.448;2022-11-15T07:49:44;3.13;;;3.12;;
71290;SDS011;59073;51.994;4.448;2022-11-15T07:52:11;3.30;;;3.29;;
71290;SDS011;59073;51.994;4.448;2022-11-15T07:54:37;3.31;;;3.30;;
71290;SDS011;59073;51.994;4.448;2022-11-15T07:57:02;3.62;;;3.61;;
71290;SDS011;59073;51.994;4.448;2022-11-15T07:59:28;3.68;;;3.68;;
71290;SDS011;59073;51.994;4.448;2022-11-15T08:01:56;3.51;;;3.51;;
71290;SDS011;59073;51.994;4.448;2022-11-15T08:04:22;3.63;;;3.62;;
71290;SDS011;59073;51.994;4.448;2022-11-15T08:06:47;3.57;;;3.56;;
71290;SDS011;59073;51.994;4.448;2022-11-15T08:09:13;3.63;;;3.61;;
71290;SDS011;59073;51.994;4.448;2022-11-15T08:11:38;3.33;;;3.32;;
71290;SDS011;59073;51.994;4.448;2022-11-15T08:14:04;3.17;;;3.17;;
71290;SDS011;59073;51.994;4.448;2022-11-15T08:16:29;3.23;;;3.23;;
71290;SDS011;59073;51.994;4.448;2022-11-15T08:18:55;3.21;;;3.21;;
71290;SDS011;59073;51.994;4.448;2022-11-15T08:21:20;2.77;;;2.77;;
71290;SDS011;59073;51.994;4.448;2022-11-15T08:23:46;2.93;;;2.92;;
71290;SDS011;59073;51.994;4.448;2022-11-15T08:26:12;3.53;;;3.52;;
71290;SDS011;59073;51.994;4.448;2022-11-15T08:28:38;3.28;;;3.28;;
71290;SDS011;59073;51.994;4.448;2022-11-15T08:31:04;3.72;;;3.72;;
71290;SDS011;59073;51.994;4.448;2022-11-15T08:33:33;4.00;;;3.99;;
71290;SDS011;59073;51.994;4.448;2022-11-15T08:36:00;3.63;;;3.62;;
71290;SDS011;59073;51.994;4.448;2022-11-15T08:38:26;3.90;;;3.90;;
71290;SDS011;59073;51.994;4.448;2022-11-15T08:41:03;3.72;;;3.72;;
71290;SDS011;59073;51.994;4.448;2022-11-15T08:43:29;3.60;;;3.60;;
71290;SDS011;59073;51.994;4.448;2022-11-15T08:45:58;3.97;;;3.97;;
71290;SDS011;59073;51.994;4.448;2022-11-15T08:48:24;3.95;;;3.95;;
71290;SDS011;59073;51.994;4.448;2022-11-15T08:50:53;3.75;;;3.75;;
71290;SDS011;59073;51.994;4.448;2022-11-15T08:53:20;3.70;;;3.70;;
71290;SDS011;59073;51.994;4.448;2022-11-15T08:55:45;4.09;;;4.09;;
71290;SDS011;59073;51.994;4.448;2022-11-15T08:58:11;3.42;;;3.42;;
71290;SDS011;59073;51.994;4.448;2022-11-15T09:00:36;3.77;;;3.77;;
71290;SDS011;59073;51.994;4.448;2022-11-15T09:03:05;3.29;;;3.29;;
71290;SDS011;59073;51.994;4.448;2022-11-15T09:05:31;3.16;;;3.16;;
71290;SDS011;59073;51.994;4.448;2022-11-15T09:07:57;3.09;;;3.09;;
71290;SDS011;59073;51.994;4.448;2022-11-15T09:10:23;3.55;;;3.55;;
71290;SDS011;59073;51.994;4.448;2022-11-15T09:12:49;3.22;;;3.22;;
71290;SDS011;59073;51.994;4.448;2022-11-15T09:15:15;3.21;;;3.21;;
71290;SDS011;59073;51.994;4.448;2022-11-15T09:17:41;3.46;;;3.46;;
71290;SDS011;59073;51.994;4.448;2022-11-15T09:20:07;3.44;;;3.44;;
71290;SDS011;59073;51.994;4.448;2022-11-15T09:22:32;3.47;;;3.47;;
71290;SDS011;59073;51.994;4.448;2022-11-15T09:24:58;3.57;;;3.57;;
71290;SDS011;59073;51.994;4.448;2022-11-15T09:27:27;3.49;;;3.49;;
71290;SDS011;59073;51.994;4.448;2022-11-15T09:29:53;3.14;;;3.14;;
71290;SDS011;59073;51.994;4.448;2022-11-15T09:32:19;3.44;;;3.44;;
71290;SDS011;59073;51.994;4.448;2022-11-15T09:35:02;3.07;;;3.07;;
71290;SDS011;59073;51.994;4.448;2022-11-15T09:37:36;3.13;;;3.13;;
71290;SDS011;59073;51.994;4.448;2022-11-15T09:40:04;3.31;;;3.31;;
71290;SDS011;59073;51.994;4.448;2022-11-15T09:49:03;3.03;;;3.03;;
71290;SDS011;59073;51.994;4.448;2022-11-15T09:51:35;3.14;;;3.13;;
71290;SDS011;59073;51.994;4.448;2022-11-15T10:00:40;2.98;;;2.98;;
71290;SDS011;59073;51.994;4.448;2022-11-15T10:13:45;2.37;;;2.36;;
71290;SDS011;59073;51.994;4.448;2022-11-15T10:23:41;2.12;;;2.12;;
71290;SDS011;59073;51.994;4.448;2022-11-15T10:26:07;2.07;;;2.05;;
71290;SDS011;59073;51.994;4.448;2022-11-15T10:29:14;2.08;;;2.06;;
71290;SDS011;59073;51.994;4.448;2022-11-15T10:31:38;2.12;;;2.10;;
71290;SDS011;59073;51.994;4.448;2022-11-15T10:36:44;2.08;;;2.08;;
71290;SDS011;59073;51.994;4.448;2022-11-15T10:39:14;2.00;;;2.00;;
71290;SDS011;59073;51.994;4.448;2022-11-15T10:41:41;2.03;;;2.03;;
71290;SDS011;59073;51.994;4.448;2022-11-15T10:46:42;2.16;;;2.13;;
71290;SDS011;59073;51.994;4.448;2022-11-15T10:49:24;1.83;;;1.80;;
71290;SDS011;59073;51.994;4.448;2022-11-15T10:51:55;1.97;;;1.95;;
71290;SDS011;59073;51.994;4.448;2022-11-15T10:54:42;1.99;;;1.97;;
71290;SDS011;59073;51.994;4.448;2022-11-15T10:57:20;1.99;;;1.97;;
71290;SDS011;59073;51.994;4.448;2022-11-15T10:59:51;1.97;;;1.95;;
71290;SDS011;59073;51.994;4.448;2022-11-15T11:05:00;1.88;;;1.85;;
71290;SDS011;59073;51.994;4.448;2022-11-15T11:07:31;2.10;;;2.08;;
71290;SDS011;59073;51.994;4.448;2022-11-15T11:10:18;1.81;;;1.79;;
71290;SDS011;59073;51.994;4.448;2022-11-15T11:12:48;1.96;;;1.96;;
71290;SDS011;59073;51.994;4.448;2022-11-15T11:15:14;1.51;;;1.49;;
71290;SDS011;59073;51.994;4.448;2022-11-15T11:17:45;1.80;;;1.78;;
71290;SDS011;59073;51.994;4.448;2022-11-15T11:20:49;1.55;;;1.52;;
71290;SDS011;59073;51.994;4.448;2022-11-15T11:28:53;1.46;;;1.39;;
71290;SDS011;59073;51.994;4.448;2022-11-15T11:34:33;1.39;;;1.32;;
71290;SDS011;59073;51.994;4.448;2022-11-15T11:39:56;1.26;;;1.18;;
71290;SDS011;59073;51.994;4.448;2022-11-15T11:47:54;1.51;;;1.39;;
71290;SDS011;59073;51.994;4.448;2022-11-15T11:50:35;1.33;;;1.23;;
71290;SDS011;59073;51.994;4.448;2022-11-15T11:53:11;1.59;;;1.46;;
71290;SDS011;59073;51.994;4.448;2022-11-15T11:55:44;1.49;;;1.35;;
71290;SDS011;59073;51.994;4.448;2022-11-15T11:58:25;1.16;;;1.04;;
71290;SDS011;59073;51.994;4.448;2022-11-15T12:01:03;1.39;;;1.26;;
71290;SDS011;59073;51.994;4.448;2022-11-15T12:03:59;1.22;;;1.10;;
71290;SDS011;59073;51.994;4.448;2022-11-15T12:06:36;1.25;;;1.14;;
71290;SDS011;59073;51.994;4.448;2022-11-15T12:11:55;1.09;;;0.96;;
71290;SDS011;59073;51.994;4.448;2022-11-15T12:14:45;1.45;;;1.29;;
71290;SDS011;59073;51.994;4.448;2022-11-15T12:17:21;1.40;;;1.28;;
71290;SDS011;59073;51.994;4.448;2022-11-15T12:19:51;1.52;;;1.37;;
71290;SDS011;59073;51.994;4.448;2022-11-15T12:22:56;1.56;;;1.39;;
71290;SDS011;59073;51.994;4.448;2022-11-15T12:25:14;1.18;;;1.05;;
71290;SDS011;59073;51.994;4.448;2022-11-15T12:27:48;1.28;;;1.14;;
71290;SDS011;59073;51.994;4.448;2022-11-15T12:30:29;1.47;;;1.30;;
71290;SDS011;59073;51.994;4.448;2022-11-15T12:36:00;1.34;;;1.17;;
71290;SDS011;59073;51.994;4.448;2022-11-15T12:41:13;1.52;;;1.30;;
71290;SDS011;59073;51.994;4.448;2022-11-15T12:43:42;1.35;;;1.15;;
71290;SDS011;59073;51.994;4.448;2022-11-15T12:46:12;1.24;;;1.08;;
71290;SDS011;59073;51.994;4.448;2022-11-15T12:48:50;1.19;;;1.03;;
71290;SDS011;59073;51.994;4.448;2022-11-15T13:02:35;1.40;;;1.19;;
71290;SDS011;59073;51.994;4.448;2022-11-15T13:17:53;1.05;;;0.92;;
71290;SDS011;59073;51.994;4.448;2022-11-15T13:20:30;1.16;;;1.02;;
71290;SDS011;59073;51.994;4.448;2022-11-15T13:27:58;1.07;;;0.96;;
71290;SDS011;59073;51.994;4.448;2022-11-15T13:30:27;1.09;;;0.98;;
71290;SDS011;59073;51.994;4.448;2022-11-15T13:32:55;0.98;;;0.87;;
71290;SDS011;59073;51.994;4.448;2022-11-15T13:35:32;1.16;;;1.01;;
71290;SDS011;59073;51.994;4.448;2022-11-15T13:38:04;1.19;;;1.03;;
71290;SDS011;59073;51.994;4.448;2022-11-15T13:40:36;1.25;;;1.07;;
71290;SDS011;59073;51.994;4.448;2022-11-15T13:48:32;1.11;;;0.93;;
71290;SDS011;59073;51.994;4.448;2022-11-15T13:50:59;1.13;;;0.94;;
71290;SDS011;59073;51.994;4.448;2022-11-15T13:53:28;1.00;;;0.84;;
71290;SDS011;59073;51.994;4.448;2022-11-15T13:55:57;1.12;;;0.95;;
71290;SDS011;59073;51.994;4.448;2022-11-15T13:58:24;1.28;;;1.07;;
71290;SDS011;59073;51.994;4.448;2022-11-15T14:00:49;1.27;;;1.05;;
71290;SDS011;59073;51.994;4.448;2022-11-15T14:03:30;1.18;;;0.97;;
71290;SDS011;59073;51.994;4.448;2022-11-15T14:08:31;1.06;;;0.87;;
71290;SDS011;59073;51.994;4.448;2022-11-15T14:11:09;1.16;;;0.94;;
71290;SDS011;59073;51.994;4.448;2022-11-15T14:13:40;1.32;;;1.08;;
71290;SDS011;59073;51.994;4.448;2022-11-15T14:16:15;1.15;;;0.94;;
71290;SDS011;59073;51.994;4.448;2022-11-15T14:18:45;1.31;;;1.07;;
71290;SDS011;59073;51.994;4.448;2022-11-15T14:21:18;0.90;;;0.74;;
71290;SDS011;59073;51.994;4.448;2022-11-15T14:23:45;1.03;;;0.86;;
71290;SDS011;59073;51.994;4.448;2022-11-15T14:26:30;1.03;;;0.85;;
71290;SDS011;59073;51.994;4.448;2022-11-15T14:31:48;1.33;;;1.11;;
71290;SDS011;59073;51.994;4.448;2022-11-15T14:34:14;0.98;;;0.82;;
71290;SDS011;59073;51.994;4.448;2022-11-15T14:36:39;0.98;;;0.83;;
71290;SDS011;59073;51.994;4.448;2022-11-15T14:39:04;0.96;;;0.81;;
71290;SDS011;59073;51.994;4.448;2022-11-15T14:41:33;1.18;;;1.01;;
71290;SDS011;59073;51.994;4.448;2022-11-15T14:44:03;0.97;;;0.85;;
71290;SDS011;59073;51.994;4.448;2022-11-15T14:46:29;0.86;;;0.74;;
71290;SDS011;59073;51.994;4.448;2022-11-15T14:48:55;1.25;;;1.06;;
71290;SDS011;59073;51.994;4.448;2022-11-15T14:51:21;1.11;;;0.95;;
71290;SDS011;59073;51.994;4.448;2022-11-15T14:53:46;0.90;;;0.79;;
71290;SDS011;59073;51.994;4.448;2022-11-15T14:56:13;1.06;;;0.93;;
71290;SDS011;59073;51.994;4.448;2022-11-15T14:58:39;1.01;;;0.89;;
71290;SDS011;59073;51.994;4.448;2022-11-15T15:01:11;1.33;;;1.16;;
71290;SDS011;59073;51.994;4.448;2022-11-15T15:03:50;1.18;;;1.02;;
71290;SDS011;59073;51.994;4.448;2022-11-15T15:06:22;1.12;;;0.98;;
71290;SDS011;59073;51.994;4.448;2022-11-15T15:08:47;1.09;;;0.93;;
71290;SDS011;59073;51.994;4.448;2022-11-15T15:11:36;1.24;;;1.06;;
71290;SDS011;59073;51.994;4.448;2022-11-15T15:14:01;0.91;;;0.78;;
71290;SDS011;59073;51.994;4.448;2022-11-15T15:16:26;1.12;;;0.98;;
71290;SDS011;59073;51.994;4.448;2022-11-15T15:18:52;1.06;;;0.93;;
71290;SDS011;59073;51.994;4.448;2022-11-15T15:21:27;1.05;;;0.92;;
71290;SDS011;59073;51.994;4.448;2022-11-15T15:23:56;0.94;;;0.82;;
71290;SDS011;59073;51.994;4.448;2022-11-15T15:26:22;1.12;;;0.98;;
71290;SDS011;59073;51.994;4.448;2022-11-15T15:28:48;1.06;;;0.93;;
71290;SDS011;59073;51.994;4.448;2022-11-15T15:31:14;1.11;;;0.99;;
71290;SDS011;59073;51.994;4.448;2022-11-15T15:33:40;1.21;;;1.08;;
71290;SDS011;59073;51.994;4.448;2022-11-15T15:36:09;1.29;;;1.17;;
71290;SDS011;59073;51.994;4.448;2022-11-15T15:38:37;1.20;;;1.09;;
71290;SDS011;59073;51.994;4.448;2022-11-15T15:41:02;0.93;;;0.84;;
71290;SDS011;59073;51.994;4.448;2022-11-15T15:43:28;1.13;;;1.03;;
71290;SDS011;59073;51.994;4.448;2022-11-15T15:45:54;0.92;;;0.83;;
71290;SDS011;59073;51.994;4.448;2022-11-15T15:48:19;1.17;;;1.07;;
71290;SDS011;59073;51.994;4.448;2022-11-15T15:50:44;1.11;;;1.02;;
71290;SDS011;59073;51.994;4.448;2022-11-15T15:53:10;1.18;;;1.10;;
71290;SDS011;59073;51.994;4.448;2022-11-15T15:55:37;0.95;;;0.89;;
71290;SDS011;59073;51.994;4.448;2022-11-15T15:58:04;1.21;;;1.13;;
71290;SDS011;59073;51.994;4.448;2022-11-15T16:00:30;1.30;;;1.22;;
71290;SDS011;59073;51.994;4.448;2022-11-15T16:02:58;1.13;;;1.07;;
71290;SDS011;59073;51.994;4.448;2022-11-15T16:05:24;1.02;;;0.97;;
71290;SDS011;59073;51.994;4.448;2022-11-15T16:07:49;1.09;;;1.03;;
71290;SDS011;59073;51.994;4.448;2022-11-15T16:10:17;0.99;;;0.94;;
71290;SDS011;59073;51.994;4.448;2022-11-15T16:12:45;1.13;;;1.08;;
71290;SDS011;59073;51.994;4.448;2022-11-15T16:15:12;1.05;;;1.01;;
71290;SDS011;59073;51.994;4.448;2022-11-15T16:17:39;1.18;;;1.15;;
71290;SDS011;59073;51.994;4.448;2022-11-15T16:20:15;1.15;;;1.12;;
71290;SDS011;59073;51.994;4.448;2022-11-15T16:22:55;1.18;;;1.16;;
71290;SDS011;59073;51.994;4.448;2022-11-15T16:25:20;1.36;;;1.34;;
71290;SDS011;59073;51.994;4.448;2022-11-15T16:27:46;1.49;;;1.46;;
71290;SDS011;59073;51.994;4.448;2022-11-15T16:30:15;1.25;;;1.23;;
71290;SDS011;59073;51.994;4.448;2022-11-15T16:32:43;1.43;;;1.42;;
71290;SDS011;59073;51.994;4.448;2022-11-15T16:35:12;1.41;;;1.40;;
71290;SDS011;59073;51.994;4.448;2022-11-15T16:37:39;1.40;;;1.40;;
71290;SDS011;59073;51.994;4.448;2022-11-15T16:40:27;1.36;;;1.36;;
71290;SDS011;59073;51.994;4.448;2022-11-15T16:42:53;1.24;;;1.24;;
71290;SDS011;59073;51.994;4.448;2022-11-15T16:45:20;1.39;;;1.39;;
71290;SDS011;59073;51.994;4.448;2022-11-15T16:47:46;1.47;;;1.46;;
71290;SDS011;59073;51.994;4.448;2022-11-15T16:52:51;1.49;;;1.49;;
71290;SDS011;59073;51.994;4.448;2022-11-15T16:55:18;1.32;;;1.32;;
71290;SDS011;59073;51.994;4.448;2022-11-15T16:57:44;1.42;;;1.42;;
71290;SDS011;59073;51.994;4.448;2022-11-15T17:00:13;1.58;;;1.58;;
71290;SDS011;59073;51.994;4.448;2022-11-15T17:02:41;1.65;;;1.65;;
71290;SDS011;59073;51.994;4.448;2022-11-15T17:05:08;1.58;;;1.58;;